Time;durP1;ratioP1;P1;durP2;ratioP2;P2;SDS_P1;SDS_P2;PMS_P1;PMS_P2;Temp;Humidity;BMP_temperature;BMP_pressure;BME280_temperature;BME280_humidity;BME280_pressure;Samples;Min_cycle;Max_cycle;Signal;HPM_P1;HPM_P2
2022/02/10 00:18:02;;;;;;;8.50;5.15;;;8.00;99.90;;;;;;2585908;54;20869;31
2022/02/10 00:20:40;;;;;;;9.20;5.50;;;8.00;99.90;;;;;;2586386;54;20077;31
2022/02/10 00:23:27;;;;;;;10.05;5.40;;;7.90;99.90;;;;;;2586362;54;20238;31
2022/02/10 00:34:25;;;;;;;11.95;7.20;;;7.90;99.90;;;;;;2586524;54;20822;31
2022/02/10 00:37:11;;;;;;;15.02;7.38;;;7.90;99.90;;;;;;2605077;46;20026;31
2022/02/10 00:42:32;;;;;;;11.15;6.20;;;7.90;99.90;;;;;;2586005;54;20038;31
2022/02/10 00:45:04;;;;;;;14.60;7.20;;;7.90;99.90;;;;;;2585904;54;20116;31
2022/02/10 00:47:51;;;;;;;10.05;5.50;;;7.90;99.90;;;;;;2586202;54;20049;31
2022/02/10 00:50:26;;;;;;;9.57;6.03;;;7.90;99.90;;;;;;2586274;54;20846;31
2022/02/10 00:53:05;;;;;;;8.90;5.33;;;7.90;99.90;;;;;;2586325;54;20941;31
2022/02/10 00:55:40;;;;;;;10.30;6.10;;;8.00;99.90;;;;;;2586230;54;20061;31
2022/02/10 00:58:21;;;;;;;9.90;6.10;;;7.90;99.90;;;;;;2684018;39;20415;31
2022/02/10 01:12:23;;;;;;;9.25;5.65;;;7.90;99.90;;;;;;2586077;54;19934;31
2022/02/10 01:31:29;;;;;;;7.63;4.82;;;7.80;99.90;;;;;;2585637;54;20939;31
2022/02/10 01:34:01;;;;;;;7.68;5.65;;;7.80;99.90;;;;;;2586288;54;20981;31
2022/02/10 01:36:38;;;;;;;9.55;5.20;;;7.80;99.90;;;;;;2604509;47;20859;31
2022/02/10 01:39:10;;;;;;;9.18;6.18;;;7.80;99.90;;;;;;2586965;47;20081;31
2022/02/10 01:58:38;;;;;;;10.90;5.40;;;7.80;99.90;;;;;;2585914;54;20477;31
2022/02/10 02:03:58;;;;;;;7.40;5.05;;;7.70;99.90;;;;;;2585863;54;21391;31
2022/02/10 02:06:40;;;;;;;8.20;5.43;;;7.70;99.90;;;;;;2586069;54;20097;31
2022/02/10 02:09:17;;;;;;;8.15;5.25;;;7.70;99.90;;;;;;2587146;47;20245;31
2022/02/10 02:11:52;;;;;;;7.95;4.70;;;7.70;99.90;;;;;;2586709;54;20144;31
2022/02/10 02:14:24;;;;;;;8.40;5.35;;;7.70;99.90;;;;;;2586659;54;20121;31
2022/02/10 02:17:00;;;;;;;8.85;5.10;;;7.70;99.90;;;;;;2586798;54;20103;31
2022/02/10 02:19:32;;;;;;;10.27;5.30;;;7.60;99.90;;;;;;2586748;54;20089;31
2022/02/10 02:22:13;;;;;;;9.07;5.20;;;7.60;99.90;;;;;;2587070;54;21300;31
2022/02/10 02:24:47;;;;;;;6.35;4.65;;;7.60;99.90;;;;;;2586955;54;20944;31
2022/02/10 02:27:20;;;;;;;8.10;5.50;;;7.60;99.90;;;;;;2587017;54;20026;31
2022/02/10 02:30:07;;;;;;;7.72;5.20;;;7.60;99.90;;;;;;2586848;54;20902;31
2022/02/10 02:32:48;;;;;;;7.90;4.63;;;7.60;99.90;;;;;;2586623;54;20152;31
2022/02/10 02:35:36;;;;;;;8.20;4.80;;;7.60;99.90;;;;;;2586824;54;20730;31
2022/02/10 02:38:37;;;;;;;7.35;4.80;;;7.60;99.90;;;;;;2587011;54;21743;31
2022/02/10 03:06:03;;;;;;;6.53;4.20;;;7.70;99.90;;;;;;2586508;54;20030;31
2022/02/10 03:08:44;;;;;;;7.38;5.28;;;7.70;99.90;;;;;;2586686;54;20018;31
2022/02/10 03:11:19;;;;;;;7.43;4.35;;;7.70;99.90;;;;;;2605192;46;20906;31
2022/02/10 03:13:56;;;;;;;6.60;5.00;;;7.80;99.90;;;;;;2591711;46;20733;31
2022/02/10 03:19:35;;;;;;;7.80;5.25;;;7.80;99.90;;;;;;2586438;54;20043;31
2022/02/10 04:15:06;;;;;;;9.05;5.50;;;7.60;99.90;;;;;;2585962;54;20035;31
2022/02/10 04:18:02;;;;;;;9.40;5.80;;;7.60;99.90;;;;;;2586367;54;20045;31
2022/02/10 04:20:49;;;;;;;13.77;6.38;;;7.70;99.90;;;;;;2586572;54;20786;31
2022/02/10 04:23:34;;;;;;;10.48;7.15;;;7.70;99.90;;;;;;2586446;54;20040;31
2022/02/10 04:26:20;;;;;;;12.65;7.15;;;7.70;99.90;;;;;;2586629;54;20730;31
2022/02/10 05:00:06;;;;;;;10.18;6.35;;;7.70;99.90;;;;;;2589805;39;20873;31
2022/02/10 05:03:15;;;;;;;;;;;7.70;99.90;;;;;;2586480;54;20767;31
2022/02/10 05:06:09;;;;;;;11.40;6.20;;;7.70;99.90;;;;;;2586535;54;19940;31
2022/02/10 05:20:21;;;;;;;12.90;7.00;;;7.70;99.90;;;;;;2586032;54;20023;31
2022/02/10 05:23:18;;;;;;;8.70;5.78;;;7.70;99.90;;;;;;2595982;46;20929;31
2022/02/10 05:34:14;;;;;;;8.50;6.40;;;7.50;99.90;;;;;;2585952;54;20023;-76
2022/02/10 05:36:47;;;;;;;10.50;7.45;;;7.60;99.90;;;;;;2586231;54;20881;31
2022/02/10 05:39:22;;;;;;;13.80;6.70;;;7.60;99.90;;;;;;2586048;54;20770;31
2022/02/10 05:47:57;;;;;;;11.10;7.30;;;7.60;99.90;;;;;;2586629;54;21244;31
2022/02/10 05:56:18;;;;;;;9.27;7.63;;;7.60;99.90;;;;;;2587191;54;20775;31
2022/02/10 05:59:22;;;;;;;9.23;6.10;;;7.50;99.90;;;;;;2587152;54;20023;31
2022/02/10 06:49:47;;;;;;;10.50;7.03;;;7.50;99.90;;;;;;2586673;54;20736;31
2022/02/10 06:52:26;;;;;;;9.20;6.57;;;7.60;99.90;;;;;;2586771;54;20889;31
2022/02/10 06:55:09;;;;;;;7.10;5.65;;;7.60;99.90;;;;;;2586831;54;20023;31
2022/02/10 07:06:36;;;;;;;8.48;6.35;;;7.60;99.90;;;;;;2605093;46;20856;31
2022/02/10 07:15:10;;;;;;;8.95;5.35;;;7.70;99.90;;;;;;2586348;54;20850;31
2022/02/10 07:48:43;;;;;;;10.45;6.15;;;8.20;99.90;;;;;;2605224;46;20836;31
2022/02/10 08:50:47;;;;;;;11.55;7.90;;;9.40;99.90;;;;;;2586191;54;20064;31
2022/02/10 08:56:15;;;;;;;14.37;8.80;;;9.40;99.90;;;;;;2586162;54;20849;31
2022/02/10 08:59:08;;;;;;;13.33;8.60;;;9.40;99.90;;;;;;2586190;54;20027;31
2022/02/10 09:04:50;;;;;;;14.48;8.52;;;9.40;99.90;;;;;;2585939;54;20939;31
2022/02/10 09:07:50;;;;;;;12.57;8.35;;;9.40;99.90;;;;;;2586053;54;20033;31
2022/02/10 09:11:05;;;;;;;12.38;7.82;;;9.40;99.90;;;;;;2593088;46;20767;31
2022/02/10 09:13:55;;;;;;;12.55;7.97;;;9.30;99.90;;;;;;2585928;54;20030;31
2022/02/10 09:17:05;;;;;;;12.17;8.27;;;9.30;99.90;;;;;;2586258;54;20104;31
2022/02/10 10:01:43;;;;;;;12.07;8.77;;;9.60;99.90;;;;;;2585947;54;20865;31
2022/02/10 10:04:31;;;;;;;11.65;8.30;;;9.70;99.90;;;;;;2585765;54;20026;31
2022/02/10 10:07:24;;;;;;;14.10;8.90;;;9.80;99.90;;;;;;2588960;54;20056;31
2022/02/10 10:16:34;;;;;;;11.50;6.88;;;10.40;99.90;;;;;;2590979;47;20070;31
2022/02/10 10:19:25;;;;;;;11.45;7.07;;;10.80;99.90;;;;;;2585717;54;20449;31
2022/02/10 10:22:19;;;;;;;12.00;7.40;;;11.20;99.90;;;;;;2604472;47;20765;31
2022/02/10 10:25:22;;;;;;;14.05;7.20;;;11.60;99.90;;;;;;2585401;54;21048;31
2022/02/10 10:51:21;;;;;;;13.37;7.73;;;13.40;99.90;;;;;;2586705;54;20815;31
2022/02/10 10:54:03;;;;;;;12.50;6.93;;;13.50;99.90;;;;;;2590478;54;22147;31
2022/02/10 10:56:39;;;;;;;11.15;7.75;;;13.50;99.90;;;;;;2586522;54;20040;31
2022/02/10 10:59:39;;;;;;;11.33;7.27;;;13.60;99.90;;;;;;2586952;54;20061;31
2022/02/10 11:36:32;;;;;;;7.60;3.58;;;14.00;99.90;;;;;;2586828;54;20031;31
2022/02/10 11:39:38;;;;;;;4.85;2.85;;;13.90;99.90;;;;;;2587026;54;20034;31
2022/02/10 11:42:26;;;;;;;6.82;2.85;;;13.90;99.90;;;;;;2592181;39;20880;31
2022/02/10 13:23:19;;;;;;;8.25;4.00;;;13.00;99.90;;;;;;2586197;54;20061;31
2022/02/10 13:23:59;;;;;;;5.15;3.05;;;12.80;99.90;;;;;;2586102;54;20046;31
2022/02/10 14:09:30;;;;;;;4.82;3.10;;;12.20;99.90;;;;;;2591716;54;20714;31
2022/02/10 14:15:02;;;;;;;6.45;3.10;;;12.10;99.90;;;;;;2605273;46;20406;31
2022/02/10 14:17:46;;;;;;;5.85;2.97;;;12.10;99.90;;;;;;2593610;54;20031;31
2022/02/10 14:20:49;;;;;;;6.70;2.80;;;12.10;99.90;;;;;;2587460;54;20029;31
2022/02/10 14:25:40;;;;;;;10.07;3.38;;;12.10;99.90;;;;;;2586745;54;20851;31
2022/02/10 14:26:25;;;;;;;9.73;4.50;;;12.10;99.90;;;;;;2586772;54;20029;31
2022/02/10 14:28:58;;;;;;;7.57;3.25;;;12.10;99.90;;;;;;2605592;46;21229;31
2022/02/10 14:31:30;;;;;;;6.82;3.08;;;12.00;99.90;;;;;;2586918;54;20021;31
2022/02/10 14:34:02;;;;;;;8.88;4.05;;;12.00;99.90;;;;;;2586932;54;20077;31
2022/02/10 14:36:42;;;;;;;7.00;3.60;;;12.00;99.90;;;;;;2599926;46;20027;31
2022/02/10 15:36:07;;;;;;;11.23;4.35;;;11.10;99.90;;;;;;2586421;54;20921;31
2022/02/10 16:18:12;;;;;;;16.10;8.67;;;10.80;99.90;;;;;;2586398;54;21001;31
2022/02/10 16:20:50;;;;;;;18.17;10.00;;;10.70;99.90;;;;;;2586307;54;20957;31
2022/02/10 16:23:26;;;;;;;22.67;12.15;;;10.80;99.90;;;;;;2586542;54;20796;31
2022/02/10 16:26:10;;;;;;;30.50;14.50;;;10.80;99.90;;;;;;2586346;54;20927;31
2022/02/10 16:28:44;;;;;;;18.25;9.90;;;10.80;99.90;;;;;;2586130;54;20042;31
2022/02/10 16:31:19;;;;;;;14.57;8.43;;;10.80;99.90;;;;;;2586263;54;20058;31
2022/02/10 16:34:12;;;;;;;11.13;6.47;;;10.70;99.90;;;;;;2585918;54;20951;31
2022/02/10 16:37:06;;;;;;;12.25;5.38;;;10.70;99.90;;;;;;2585790;54;20926;31
2022/02/10 16:40:04;;;;;;;8.60;5.13;;;10.70;99.90;;;;;;2754756;31;20484;31
2022/02/10 16:42:37;;;;;;;10.20;5.43;;;10.70;99.90;;;;;;2604889;46;20886;31
2022/02/10 16:45:27;;;;;;;12.35;6.75;;;10.70;99.90;;;;;;2585953;54;20909;31
2022/02/10 16:48:19;;;;;;;15.00;7.40;;;10.70;99.90;;;;;;2586217;54;20085;31
2022/02/10 16:50:51;;;;;;;13.90;6.65;;;10.60;99.90;;;;;;2586707;54;20018;31
2022/02/10 16:53:30;;;;;;;9.23;6.63;;;10.60;99.90;;;;;;2586247;54;20790;31
2022/02/10 16:56:12;;;;;;;11.35;6.35;;;10.60;99.90;;;;;;2586392;54;21220;31
2022/02/10 16:59:22;;;;;;;8.52;5.78;;;10.60;99.90;;;;;;2585905;54;20892;31
2022/02/10 17:04:59;;;;;;;17.75;9.35;;;10.60;99.90;;;;;;2585965;54;20489;31
2022/02/10 17:19:33;;;;;;;13.60;7.65;;;10.50;99.90;;;;;;2604591;46;20096;31
2022/02/10 17:27:54;;;;;;;11.05;6.93;;;10.40;99.90;;;;;;2585713;54;21111;31
2022/02/10 17:31:03;;;;;;;9.90;5.90;;;10.30;99.90;;;;;;2586120;54;20878;31
2022/02/10 17:34:05;;;;;;;11.90;6.90;;;10.20;99.90;;;;;;2598013;54;20030;31
2022/02/10 17:36:45;;;;;;;6.22;3.85;;;10.20;99.90;;;;;;2598683;54;20032;31
2022/02/10 17:42:35;;;;;;;8.25;5.45;;;10.00;99.90;;;;;;2586104;54;20022;31
2022/02/10 17:45:26;;;;;;;9.10;5.40;;;10.00;99.90;;;;;;2586218;54;20049;31
2022/02/10 17:53:38;;;;;;;9.90;5.93;;;9.70;99.90;;;;;;2587231;54;19931;31
2022/02/10 17:56:11;;;;;;;11.57;6.68;;;9.70;99.90;;;;;;2605162;47;20026;31
2022/02/10 17:58:49;;;;;;;10.53;6.57;;;9.60;99.90;;;;;;2604917;47;20033;31
2022/02/10 18:01:21;;;;;;;;;;;9.50;99.90;;;;;;2586488;54;20129;31
2022/02/10 18:03:54;;;;;;;10.35;5.95;;;9.50;99.90;;;;;;2589636;54;19945;31
2022/02/10 18:06:33;;;;;;;10.70;6.90;;;9.40;99.90;;;;;;2585733;54;20100;31
2022/02/10 18:14:46;;;;;;;14.38;7.28;;;9.20;99.90;;;;;;2585636;54;20034;31
2022/02/10 18:17:42;;;;;;;11.90;6.85;;;9.20;99.90;;;;;;2585883;54;20068;31
2022/02/10 18:20:21;;;;;;;;;;;9.20;99.90;;;;;;2683759;39;20425;31
2022/02/10 18:23:09;;;;;;;12.13;7.33;;;9.10;99.90;;;;;;2586308;54;19938;31
2022/02/10 18:29:03;;;;;;;15.05;8.25;;;9.00;99.90;;;;;;2586115;54;20038;31
2022/02/10 18:35:32;;;;;;;14.17;8.30;;;9.00;99.90;;;;;;2586264;54;20048;31
2022/02/10 19:08:08;;;;;;;17.30;10.30;;;8.80;99.90;;;;;;2586651;54;20096;31
2022/02/10 19:10:45;;;;;;;16.92;11.00;;;8.70;99.90;;;;;;2587478;46;20653;31
2022/02/10 19:13:23;;;;;;;14.93;9.45;;;8.70;99.90;;;;;;2586521;54;20152;31
2022/02/10 19:15:57;;;;;;;17.10;10.00;;;8.70;99.90;;;;;;2586588;54;20046;31
2022/02/10 19:18:49;;;;;;;15.45;9.73;;;8.70;99.90;;;;;;2586793;54;20867;31
2022/02/10 19:21:23;;;;;;;19.00;10.13;;;8.60;99.90;;;;;;2591027;46;20863;31
2022/02/10 19:23:55;;;;;;;21.15;10.30;;;8.60;99.90;;;;;;2586469;54;20176;31
2022/02/10 19:26:29;;;;;;;13.67;9.47;;;8.60;99.90;;;;;;2586359;54;20183;31
2022/02/10 19:29:07;;;;;;;19.47;10.97;;;8.50;99.90;;;;;;2586715;54;20302;31
2022/02/10 19:31:46;;;;;;;17.45;10.02;;;8.50;99.90;;;;;;2586353;54;20022;31
2022/02/10 19:34:19;;;;;;;15.15;10.10;;;8.40;99.90;;;;;;2586203;54;20763;31
2022/02/10 19:37:15;;;;;;;20.03;12.07;;;8.40;99.90;;;;;;2586595;54;20056;31
2022/02/10 19:39:53;;;;;;;17.05;10.30;;;8.30;99.90;;;;;;2596221;46;20903;31
2022/02/10 19:42:32;;;;;;;16.63;10.85;;;8.30;99.90;;;;;;2586500;54;20200;31
2022/02/10 19:45:12;;;;;;;12.60;9.40;;;8.30;99.90;;;;;;2586736;54;20091;31
2022/02/10 19:47:46;;;;;;;17.85;9.65;;;8.20;99.90;;;;;;2684324;39;20306;31
2022/02/10 19:50:25;;;;;;;13.10;9.07;;;8.20;99.90;;;;;;2586971;54;20033;31
2022/02/10 19:53:02;;;;;;;16.88;9.07;;;8.20;99.90;;;;;;2589745;54;20027;31
2022/02/10 19:55:42;;;;;;;16.60;10.57;;;8.20;99.90;;;;;;2605510;46;20758;31
2022/02/10 19:58:20;;;;;;;15.95;10.95;;;8.20;99.90;;;;;;2586230;54;20117;31
2022/02/10 20:01:01;;;;;;;14.50;10.70;;;8.20;99.90;;;;;;2604805;46;20026;31
2022/02/10 20:03:37;;;;;;;18.85;10.40;;;8.10;99.90;;;;;;2586005;47;21027;31
2022/02/10 20:06:12;;;;;;;13.95;10.40;;;8.10;99.90;;;;;;2586534;54;19940;31
2022/02/10 20:08:47;;;;;;;19.60;10.77;;;8.10;99.90;;;;;;2586082;54;20036;31
2022/02/10 20:11:25;;;;;;;;;;;8.10;99.90;;;;;;2586924;54;20273;31
2022/02/10 20:13:58;;;;;;;18.98;11.07;;;8.00;99.90;;;;;;2586769;54;19951;31
2022/02/10 20:16:35;;;;;;;21.80;12.00;;;8.00;99.90;;;;;;2586446;54;20093;31
2022/02/10 20:19:13;;;;;;;19.83;11.63;;;8.00;99.90;;;;;;2586301;54;21453;31
2022/02/10 20:21:48;;;;;;;20.05;11.95;;;8.00;99.90;;;;;;2586759;54;21252;31
2022/02/10 20:24:20;;;;;;;18.30;12.15;;;8.00;99.90;;;;;;2586190;54;20042;31
2022/02/10 20:26:54;;;;;;;20.75;14.30;;;8.00;99.90;;;;;;2587376;54;21435;31
2022/02/10 20:29:29;;;;;;;22.15;14.52;;;7.90;99.90;;;;;;2586218;54;20934;31
2022/02/10 20:32:05;;;;;;;20.52;14.00;;;7.90;99.90;;;;;;2585401;54;20790;31
2022/02/10 20:34:40;;;;;;;19.70;13.10;;;7.90;99.90;;;;;;2586307;54;20080;31
2022/02/10 20:37:15;;;;;;;20.30;14.00;;;7.90;99.90;;;;;;2586175;54;20045;31
2022/02/10 20:39:54;;;;;;;23.80;15.43;;;7.90;99.90;;;;;;2586238;54;20031;31
2022/02/10 20:42:27;;;;;;;21.35;14.10;;;7.80;99.90;;;;;;2586133;54;20321;31
2022/02/10 20:45:01;;;;;;;20.00;13.50;;;7.80;99.90;;;;;;2586073;54;20087;31
2022/02/10 20:47:39;;;;;;;18.30;13.43;;;7.90;99.90;;;;;;2586324;54;20105;31
2022/02/10 20:50:16;;;;;;;23.17;13.85;;;7.90;99.90;;;;;;2604920;46;20943;31
2022/02/10 20:52:50;;;;;;;19.60;14.03;;;7.90;99.90;;;;;;2586241;54;20073;31
2022/02/10 20:55:25;;;;;;;21.10;14.73;;;7.90;99.90;;;;;;2586409;54;20884;31
2022/02/10 20:58:03;;;;;;;22.70;14.68;;;7.90;99.90;;;;;;2586080;54;20022;31
2022/02/10 21:00:37;;;;;;;18.42;15.00;;;7.90;99.90;;;;;;2679033;39;20028;31
2022/02/10 21:03:16;;;;;;;26.33;14.77;;;7.90;99.90;;;;;;2586141;54;20708;31
2022/02/10 21:05:58;;;;;;;23.90;14.00;;;7.90;99.90;;;;;;2586110;54;20269;31
2022/02/10 21:08:43;;;;;;;22.50;15.50;;;7.90;99.90;;;;;;2586250;54;20026;31
2022/02/10 21:11:18;;;;;;;25.30;15.82;;;7.90;99.90;;;;;;2604626;46;20057;31
2022/02/10 21:13:52;;;;;;;25.20;15.25;;;7.90;99.90;;;;;;2586494;54;20892;31
2022/02/10 21:16:29;;;;;;;22.55;14.55;;;7.90;99.90;;;;;;2586358;54;20886;31
2022/02/10 21:19:10;;;;;;;19.75;15.43;;;7.90;99.90;;;;;;2604789;46;20843;31
2022/02/10 21:21:47;;;;;;;23.33;16.30;;;7.90;99.90;;;;;;2586110;54;20215;31
2022/02/10 21:24:25;;;;;;;21.23;15.75;;;7.90;99.90;;;;;;2605798;54;20156;31
2022/02/10 21:27:24;;;;;;;21.70;16.25;;;7.90;99.90;;;;;;2586093;54;20053;31
2022/02/10 21:30:03;;;;;;;25.45;16.95;;;7.80;99.90;;;;;;2586152;54;20112;31
2022/02/10 21:32:42;;;;;;;25.65;16.88;;;7.80;99.90;;;;;;2585898;54;20108;31
2022/02/10 21:37:55;;;;;;;23.45;16.10;;;7.80;99.90;;;;;;2590130;54;20732;31
2022/02/10 21:55:07;;;;;;;4.20;2.70;;;7.20;99.90;;;;;;2586000;54;20049;31
2022/02/10 21:58:30;;;;;;;4.18;2.42;;;7.10;99.90;;;;;;2586675;47;21223;31
2022/02/10 22:16:17;;;;;;;3.10;1.90;;;6.70;99.90;;;;;;2585759;54;20584;31
2022/02/10 22:20:55;;;;;;;3.15;2.20;;;6.50;99.90;;;;;;2604464;47;20365;31
2022/02/10 22:23:28;;;;;;;3.87;1.80;;;6.60;99.90;;;;;;2589110;54;20274;31
2022/02/10 22:26:03;;;;;;;4.45;2.55;;;6.60;99.90;;;;;;2586357;54;20042;31
2022/02/10 22:28:48;;;;;;;3.10;1.98;;;6.50;99.90;;;;;;2586730;54;20023;31
2022/02/10 22:36:57;;;;;;;3.10;1.70;;;6.50;99.90;;;;;;2586370;54;20065;31
2022/02/10 22:39:36;;;;;;;3.97;1.88;;;6.50;99.90;;;;;;2586763;54;21669;31
2022/02/10 22:42:09;;;;;;;4.40;1.60;;;6.50;99.90;;;;;;2587186;54;20754;31
2022/02/10 22:44:59;;;;;;;3.58;1.38;;;6.50;99.90;;;;;;2586680;54;20927;31
2022/02/10 22:47:32;;;;;;;2.50;1.08;;;6.50;99.90;;;;;;2587010;54;20026;31
2022/02/10 22:50:03;;;;;;;3.57;1.27;;;6.40;99.90;;;;;;2592133;46;20022;31
2022/02/10 22:52:34;;;;;;;3.50;1.50;;;6.40;99.90;;;;;;2585772;54;20038;31
2022/02/10 22:55:07;;;;;;;3.17;1.25;;;6.40;99.90;;;;;;2586734;54;20922;31
2022/02/10 22:57:42;;;;;;;3.83;1.47;;;6.40;99.90;;;;;;2587778;46;20929;31
2022/02/10 23:00:46;;;;;;;3.75;1.65;;;6.40;99.90;;;;;;2605316;46;20855;31
2022/02/10 23:03:20;;;;;;;3.00;1.40;;;6.40;99.90;;;;;;2586756;54;20789;31
2022/02/10 23:05:55;;;;;;;5.57;1.60;;;6.40;99.90;;;;;;2586914;54;20246;31
2022/02/10 23:08:28;;;;;;;4.00;1.77;;;6.40;99.90;;;;;;2586398;54;20027;31
2022/02/10 23:11:01;;;;;;;5.70;2.00;;;6.30;99.90;;;;;;2586635;54;20026;31
2022/02/10 23:13:37;;;;;;;4.70;2.10;;;6.30;99.90;;;;;;2586555;54;20056;31
2022/02/10 23:16:13;;;;;;;;;;;6.30;99.90;;;;;;2588684;54;20859;31
2022/02/10 23:18:45;;;;;;;4.00;1.95;;;6.30;99.90;;;;;;2605472;46;21417;31
2022/02/10 23:21:20;;;;;;;4.25;1.55;;;6.30;99.90;;;;;;2605093;46;21373;31
2022/02/10 23:23:53;;;;;;;4.05;1.45;;;6.30;99.90;;;;;;2590611;54;20046;31
2022/02/10 23:26:27;;;;;;;1.80;0.95;;;6.30;99.90;;;;;;2586452;54;20046;31
2022/02/10 23:29:00;;;;;;;1.55;0.85;;;6.40;99.90;;;;;;2587887;46;20077;31
2022/02/10 23:31:36;;;;;;;2.33;1.00;;;6.30;99.90;;;;;;2592226;39;22317;31
2022/02/10 23:34:08;;;;;;;2.85;1.70;;;6.30;99.90;;;;;;2586394;54;20068;31
2022/02/10 23:36:48;;;;;;;2.85;1.50;;;6.30;99.90;;;;;;2586373;54;20815;31
2022/02/10 23:39:25;;;;;;;2.63;1.23;;;6.40;99.90;;;;;;2586968;54;20031;31
2022/02/10 23:44:47;;;;;;;;;;;6.30;99.90;;;;;;2587570;46;20022;31
2022/02/10 23:47:24;;;;;;;4.88;2.05;;;6.30;99.90;;;;;;2605083;46;20008;31
2022/02/10 23:49:59;;;;;;;6.10;1.80;;;6.20;99.90;;;;;;2586556;54;20026;31
2022/02/10 23:52:33;;;;;;;5.53;2.60;;;6.30;99.90;;;;;;2587107;54;20042;31
2022/02/10 23:55:16;;;;;;;10.10;5.80;;;6.30;99.90;;;;;;2684131;39;20413;31
2022/02/10 23:57:57;;;;;;;9.85;5.75;;;6.30;99.90;;;;;;2586429;54;20756;31
